createdAt,value
2023-03-02T00:01:29.251Z,58.97
2023-03-02T00:03:58.067Z,59.05
2023-03-02T00:06:24.477Z,58.56
2023-03-02T00:08:50.860Z,58.71
2023-03-02T00:11:17.277Z,58.87
2023-03-02T00:13:43.709Z,58.54
2023-03-02T00:16:10.179Z,58.21
2023-03-02T00:18:36.582Z,58.52
2023-03-02T00:21:02.948Z,59.17
2023-03-02T00:23:29.311Z,59.11
2023-03-02T00:25:55.699Z,58.75
2023-03-02T00:28:22.098Z,58.79
2023-03-02T00:30:48.482Z,58.39
2023-03-02T00:33:14.917Z,59.04
2023-03-02T00:35:41.347Z,58.58
2023-03-02T00:38:07.829Z,58.34
2023-03-02T00:40:34.252Z,58.40
2023-03-02T00:43:00.647Z,58.64
2023-03-02T00:45:27.034Z,58.96
2023-03-02T00:47:53.388Z,59.07
2023-03-02T00:50:19.762Z,58.72
2023-03-02T00:52:46.136Z,59.01
2023-03-02T00:55:12.576Z,59.10
2023-03-02T00:57:39.007Z,59.10
2023-03-02T01:00:05.395Z,58.87
2023-03-02T01:02:31.874Z,58.70
2023-03-02T01:04:58.397Z,58.62
2023-03-02T01:07:24.797Z,58.66
2023-03-02T01:09:51.169Z,59.05
2023-03-02T01:12:17.533Z,59.54
2023-03-02T01:14:43.948Z,59.19
2023-03-02T01:17:10.333Z,59.32
2023-03-02T01:19:36.741Z,59.33
2023-03-02T01:22:03.111Z,59.22
2023-03-02T01:24:29.535Z,59.52
2023-03-02T01:26:55.926Z,59.41
2023-03-02T01:29:22.366Z,59.39
2023-03-02T01:31:48.803Z,58.94
2023-03-02T01:34:15.353Z,59.44
2023-03-02T01:36:41.729Z,59.18
2023-03-02T01:39:08.110Z,58.94
2023-03-02T01:41:34.499Z,59.21
2023-03-02T01:44:00.853Z,58.65
2023-03-02T01:46:27.217Z,59.32
2023-03-02T01:48:53.623Z,59.54
2023-03-02T01:51:19.988Z,58.47
2023-03-02T01:53:46.368Z,58.61
2023-03-02T01:56:12.759Z,58.69
2023-03-02T01:58:39.185Z,58.58
2023-03-02T02:01:05.616Z,58.85
2023-03-02T02:03:32.031Z,58.66
2023-03-02T02:05:58.420Z,58.75
2023-03-02T02:08:24.817Z,58.34
2023-03-02T02:10:51.178Z,58.34
2023-03-02T02:13:17.590Z,58.24
2023-03-02T02:15:44.012Z,58.13
2023-03-02T02:18:10.471Z,58.09
2023-03-02T02:20:36.857Z,57.86
2023-03-02T02:23:03.296Z,57.81
2023-03-02T02:25:29.690Z,58.47
2023-03-02T02:27:56.064Z,59.26
2023-03-02T02:30:22.447Z,59.06
2023-03-02T02:32:48.840Z,58.49
2023-03-02T02:35:15.320Z,58.42
2023-03-02T02:37:41.693Z,58.42
2023-03-02T02:40:08.083Z,58.00
2023-03-02T02:42:34.481Z,58.34
2023-03-02T02:45:00.896Z,58.29
2023-03-02T02:47:27.289Z,58.47
2023-03-02T02:49:53.658Z,58.14
2023-03-02T02:52:20.060Z,58.09
2023-03-02T02:54:46.453Z,57.76
2023-03-02T02:57:12.884Z,58.31
2023-03-02T02:59:39.291Z,57.81
2023-03-02T03:02:05.670Z,58.32
2023-03-02T03:04:32.074Z,58.54
2023-03-02T03:06:58.486Z,57.79
2023-03-02T03:09:24.976Z,57.83
2023-03-02T03:11:51.453Z,57.71
2023-03-02T03:14:17.819Z,58.05
2023-03-02T03:16:44.267Z,58.01
2023-03-02T03:19:10.746Z,58.05
2023-03-02T03:21:37.128Z,58.28
2023-03-02T03:24:03.521Z,58.33
2023-03-02T03:26:30.253Z,58.25
2023-03-02T03:28:56.873Z,58.05
2023-03-02T03:31:23.276Z,58.25
2023-03-02T03:33:49.973Z,58.06
2023-03-02T03:36:16.337Z,58.11
2023-03-02T03:38:42.737Z,57.70
2023-03-02T03:41:09.148Z,58.04
2023-03-02T03:43:35.522Z,58.19
2023-03-02T03:46:01.968Z,58.54
2023-03-02T03:48:28.393Z,58.10
2023-03-02T03:50:54.786Z,58.62
2023-03-02T03:53:21.176Z,59.93
2023-03-02T03:55:47.583Z,60.59
2023-03-02T03:58:14.047Z,60.60
2023-03-02T04:00:40.459Z,60.11
2023-03-02T04:03:06.840Z,59.71
2023-03-02T04:05:33.218Z,59.37
2023-03-02T04:07:59.587Z,59.41
2023-03-02T04:10:25.989Z,59.51
2023-03-02T04:12:52.423Z,59.68
2023-03-02T04:15:18.828Z,59.41
2023-03-02T04:17:45.210Z,59.54
2023-03-02T04:20:11.601Z,59.32
2023-03-02T04:22:38.049Z,59.39
2023-03-02T04:25:04.465Z,59.08
2023-03-02T04:27:30.845Z,59.30
2023-03-02T04:29:57.223Z,59.41
2023-03-02T04:32:23.665Z,59.39
2023-03-02T04:34:50.070Z,60.21
2023-03-02T04:37:16.454Z,60.36
2023-03-02T04:39:42.853Z,60.97
2023-03-02T04:42:09.263Z,61.14
2023-03-02T04:44:35.648Z,60.73
2023-03-02T04:47:02.036Z,60.87
2023-03-02T04:49:28.444Z,60.50
2023-03-02T04:51:54.822Z,60.50
2023-03-02T04:54:21.233Z,60.40
2023-03-02T04:56:47.610Z,59.65
2023-03-02T04:59:14.033Z,59.20
2023-03-02T05:01:40.447Z,59.04
2023-03-02T05:04:06.909Z,59.30
2023-03-02T05:06:33.663Z,59.45
2023-03-02T05:09:00.300Z,59.51
2023-03-02T05:11:26.710Z,59.35
2023-03-02T05:13:53.100Z,59.43
2023-03-02T05:16:19.638Z,59.81
2023-03-02T05:18:46.119Z,59.63
2023-03-02T05:21:12.487Z,59.43
2023-03-02T05:23:38.885Z,59.68
2023-03-02T05:26:05.263Z,59.90
2023-03-02T05:28:31.634Z,59.42
2023-03-02T05:30:58.058Z,59.48
2023-03-02T05:33:24.436Z,59.19
2023-03-02T05:35:50.926Z,59.92
2023-03-02T05:38:17.322Z,59.65
2023-03-02T05:40:43.699Z,59.86
2023-03-02T05:43:10.080Z,59.90
2023-03-02T05:45:36.546Z,59.81
2023-03-02T05:48:02.962Z,58.87
2023-03-02T05:50:29.364Z,58.59
2023-03-02T05:52:55.744Z,59.28
2023-03-02T05:55:22.118Z,59.66
2023-03-02T05:57:48.580Z,59.49
2023-03-02T06:00:14.952Z,59.56
2023-03-02T06:02:41.412Z,59.66
2023-03-02T06:05:07.808Z,58.94
2023-03-02T06:07:34.209Z,59.21
2023-03-02T06:10:00.652Z,59.22
2023-03-02T06:12:27.029Z,59.44
2023-03-02T06:14:53.421Z,59.50
2023-03-02T06:17:22.044Z,59.45
2023-03-02T06:19:48.446Z,59.13
2023-03-02T06:22:14.877Z,59.18
2023-03-02T06:24:41.315Z,58.81
2023-03-02T06:27:07.827Z,58.84
2023-03-02T06:29:34.230Z,61.89
2023-03-02T06:32:00.752Z,58.40
2023-03-02T06:34:28.216Z,58.77
2023-03-02T06:36:54.584Z,58.80
2023-03-02T06:39:20.966Z,58.55
2023-03-02T06:41:47.336Z,58.50
2023-03-02T06:44:13.736Z,58.68
2023-03-02T06:46:40.178Z,59.07
2023-03-02T06:49:06.634Z,58.82
2023-03-02T06:51:33.022Z,59.01
2023-03-02T06:53:59.563Z,58.83
2023-03-02T06:56:25.973Z,58.86
2023-03-02T06:58:52.402Z,58.66
2023-03-02T07:01:18.788Z,58.42
2023-03-02T07:03:45.220Z,57.58
2023-03-02T07:06:11.633Z,57.59
2023-03-02T07:08:38.025Z,57.73
2023-03-02T07:11:04.414Z,58.27
2023-03-02T07:13:30.814Z,57.98
2023-03-02T07:15:57.181Z,57.94
2023-03-02T07:18:23.563Z,57.55
2023-03-02T07:20:49.934Z,57.62
2023-03-02T07:23:16.369Z,57.86
2023-03-02T07:25:42.779Z,57.93
2023-03-02T07:28:09.228Z,58.07
2023-03-02T07:30:35.652Z,57.33
2023-03-02T07:33:02.057Z,57.69
2023-03-02T07:35:28.568Z,57.80
2023-03-02T07:37:55.028Z,58.33
2023-03-02T07:40:21.422Z,58.26
2023-03-02T07:42:47.810Z,58.46
2023-03-02T07:45:14.220Z,58.63
2023-03-02T07:47:40.605Z,58.41
2023-03-02T07:50:06.985Z,57.64
2023-03-02T07:52:33.390Z,57.76
2023-03-02T07:54:59.818Z,58.41
2023-03-02T07:57:26.288Z,58.34
2023-03-02T07:59:52.705Z,58.47
2023-03-02T08:02:19.138Z,58.66
2023-03-02T08:04:45.523Z,58.34
2023-03-02T08:07:11.880Z,58.75
2023-03-02T08:09:38.274Z,59.04
2023-03-02T08:12:04.644Z,59.67
2023-03-02T08:14:31.013Z,59.42
2023-03-02T08:16:57.380Z,59.08
2023-03-02T08:19:23.781Z,58.80
2023-03-02T08:21:50.172Z,58.44
2023-03-02T08:24:16.598Z,59.59
2023-03-02T08:26:42.989Z,59.69
2023-03-02T08:29:09.350Z,59.25
2023-03-02T08:31:36.135Z,59.11
2023-03-02T08:34:02.641Z,58.44
2023-03-02T08:36:29.126Z,58.14
2023-03-02T08:38:55.534Z,58.10
2023-03-02T08:41:21.946Z,58.20
2023-03-02T08:43:48.334Z,58.01
2023-03-02T08:46:14.857Z,57.97
2023-03-02T08:48:41.251Z,58.13
2023-03-02T08:51:07.625Z,58.63
2023-03-02T08:53:34.069Z,58.79
2023-03-02T08:56:00.468Z,59.03
2023-03-02T08:58:26.877Z,59.14
2023-03-02T09:00:53.335Z,59.54
2023-03-02T09:03:39.675Z,59.81
2023-03-02T09:06:06.105Z,59.51
2023-03-02T09:08:32.483Z,59.78
2023-03-02T09:10:58.853Z,58.44
2023-03-02T09:13:25.233Z,58.65
2023-03-02T09:15:51.628Z,58.29
2023-03-02T09:18:18.041Z,58.44
2023-03-02T09:20:44.564Z,58.58
2023-03-02T09:23:10.974Z,58.50
2023-03-02T09:25:37.361Z,58.13
2023-03-02T09:28:03.746Z,58.71
2023-03-02T09:30:30.162Z,59.61
2023-03-02T09:32:56.645Z,60.10
2023-03-02T09:35:23.091Z,60.00
2023-03-02T09:37:49.579Z,60.69
2023-03-02T09:40:16.039Z,59.62
2023-03-02T09:42:44.346Z,58.76
2023-03-02T09:45:10.987Z,58.03
2023-03-02T09:47:37.374Z,57.35
2023-03-02T09:50:03.788Z,57.61
2023-03-02T09:52:30.158Z,58.43
2023-03-02T09:54:56.548Z,57.83
2023-03-02T09:57:22.962Z,57.70
2023-03-02T09:59:49.346Z,57.81
2023-03-02T10:02:15.742Z,57.52
2023-03-02T10:04:42.161Z,57.64
2023-03-02T10:07:08.577Z,58.32
2023-03-02T10:09:34.954Z,58.00
2023-03-02T10:12:01.347Z,58.13
2023-03-02T10:14:27.738Z,58.38
2023-03-02T10:16:54.137Z,58.33
2023-03-02T10:19:20.525Z,57.69
2023-03-02T10:21:46.907Z,57.41
2023-03-02T10:24:13.348Z,55.92
2023-03-02T10:26:39.739Z,55.76
2023-03-02T10:29:06.129Z,55.37
2023-03-02T10:31:32.500Z,55.00
2023-03-02T10:33:58.873Z,55.92
2023-03-02T10:36:25.305Z,55.80
2023-03-02T10:38:51.677Z,56.40
2023-03-02T10:41:18.054Z,54.84
2023-03-02T10:43:44.477Z,55.29
2023-03-02T10:46:10.938Z,55.05
2023-03-02T10:48:40.919Z,54.42
2023-03-02T10:51:07.532Z,53.48
2023-03-02T10:53:33.909Z,51.84
2023-03-02T10:56:01.298Z,52.13
2023-03-02T10:58:27.660Z,51.03
2023-03-02T11:00:54.088Z,49.77
2023-03-02T11:03:20.495Z,50.41
2023-03-02T11:05:46.864Z,49.79
2023-03-02T11:08:13.227Z,50.31
2023-03-02T11:10:39.654Z,48.86
2023-03-02T11:13:06.023Z,49.27
2023-03-02T11:15:32.403Z,47.87
2023-03-02T11:17:58.844Z,47.58
2023-03-02T11:20:25.217Z,49.17
2023-03-02T11:22:51.631Z,50.98
2023-03-02T11:25:17.992Z,50.40
2023-03-02T11:27:44.390Z,49.74
2023-03-02T11:30:10.779Z,48.72
2023-03-02T11:32:37.287Z,48.43
2023-03-02T11:35:03.707Z,47.44
2023-03-02T11:37:30.123Z,49.43
2023-03-02T11:39:56.508Z,50.34
2023-03-02T11:42:23.005Z,49.75
2023-03-02T11:44:49.454Z,49.24
2023-03-02T11:47:15.919Z,47.98
2023-03-02T11:49:42.711Z,49.95
2023-03-02T11:52:09.074Z,50.71
2023-03-02T11:54:35.480Z,48.97
2023-03-02T11:57:01.869Z,51.21
2023-03-02T11:59:28.915Z,50.73
2023-03-02T12:01:55.454Z,50.85
2023-03-02T12:04:21.967Z,50.61
2023-03-02T12:06:48.367Z,50.91
2023-03-02T12:09:14.840Z,50.28
2023-03-02T12:11:41.232Z,50.56
2023-03-02T12:14:07.619Z,50.64
2023-03-02T12:16:34.435Z,49.88
2023-03-02T12:19:01.102Z,49.46
2023-03-02T12:21:27.485Z,48.84
2023-03-02T12:23:53.869Z,49.23
2023-03-02T12:26:20.309Z,50.86
2023-03-02T12:28:46.703Z,50.16
2023-03-02T12:31:13.145Z,50.52
2023-03-02T12:33:39.547Z,52.23
2023-03-02T12:36:05.919Z,50.32
2023-03-02T12:38:32.310Z,48.95
2023-03-02T12:40:58.765Z,47.29
2023-03-02T12:43:25.145Z,47.82
2023-03-02T12:45:51.532Z,48.15
2023-03-02T12:48:18.260Z,49.02
2023-03-02T12:50:44.775Z,48.57
2023-03-02T12:53:11.142Z,47.48
2023-03-02T12:55:37.583Z,45.68
2023-03-02T12:58:03.994Z,45.79
2023-03-02T13:00:30.502Z,45.17
2023-03-02T13:02:56.956Z,45.81
2023-03-02T13:05:23.443Z,47.01
2023-03-02T13:07:50.023Z,46.28
2023-03-02T13:10:16.418Z,46.04
2023-03-02T13:12:42.829Z,45.59
2023-03-02T13:15:09.207Z,45.54
2023-03-02T13:17:35.589Z,45.77
2023-03-02T13:20:01.974Z,46.41
2023-03-02T13:22:28.457Z,44.88
2023-03-02T13:24:54.919Z,44.09
2023-03-02T13:27:21.371Z,44.46
2023-03-02T13:29:47.824Z,43.08
2023-03-02T13:32:14.239Z,42.98
2023-03-02T13:34:40.647Z,43.05
2023-03-02T13:37:07.026Z,42.54
2023-03-02T13:39:33.422Z,41.76
2023-03-02T13:41:59.877Z,44.01
2023-03-02T13:44:26.294Z,43.00
2023-03-02T13:46:52.732Z,41.46
2023-03-02T13:49:19.123Z,40.94
2023-03-02T13:51:45.540Z,40.95
2023-03-02T13:54:12.083Z,42.07
2023-03-02T13:56:38.474Z,43.28
2023-03-02T13:59:04.850Z,42.50
2023-03-02T14:01:31.284Z,42.81
2023-03-02T14:03:57.804Z,43.53
2023-03-02T14:06:24.258Z,44.83
2023-03-02T14:08:50.617Z,46.03
2023-03-02T14:11:17.003Z,45.42
2023-03-02T14:13:43.382Z,45.17
2023-03-02T14:16:09.799Z,44.03
2023-03-02T14:18:36.178Z,43.18
2023-03-02T14:21:02.693Z,42.52
2023-03-02T14:23:29.154Z,44.87
2023-03-02T14:25:55.552Z,44.33
2023-03-02T14:28:21.944Z,43.43
2023-03-02T14:30:48.401Z,44.69
2023-03-02T14:33:14.831Z,43.42
2023-03-02T14:35:44.630Z,43.15
2023-03-02T14:38:10.998Z,42.48
2023-03-02T14:40:37.384Z,42.17
2023-03-02T14:43:03.788Z,42.96
2023-03-02T14:45:30.928Z,41.49
2023-03-02T14:47:57.463Z,41.46
2023-03-02T14:50:23.871Z,41.46
2023-03-02T14:52:50.257Z,39.88
2023-03-02T14:55:16.640Z,38.71
2023-03-02T14:57:43.069Z,38.33
2023-03-02T15:00:09.458Z,39.53
2023-03-02T15:02:35.928Z,40.40
2023-03-02T15:05:02.403Z,40.35
2023-03-02T15:07:28.767Z,39.61
2023-03-02T15:09:55.197Z,38.67
2023-03-02T15:12:21.601Z,37.28
2023-03-02T15:14:47.981Z,38.14
2023-03-02T15:17:14.401Z,38.44
2023-03-02T15:19:40.800Z,37.66
2023-03-02T15:22:07.367Z,40.35
2023-03-02T15:24:33.791Z,40.98
2023-03-02T15:27:01.543Z,42.54
2023-03-02T15:29:27.953Z,42.02
2023-03-02T15:31:54.512Z,41.51
2023-03-02T15:34:21.051Z,39.52
2023-03-02T15:36:47.499Z,39.91
2023-03-02T15:39:13.918Z,39.33
2023-03-02T15:41:40.381Z,38.18
2023-03-02T15:44:06.783Z,36.52
2023-03-02T15:46:33.234Z,36.81
2023-03-02T15:48:59.683Z,36.04
2023-03-02T15:51:29.349Z,35.61
2023-03-02T15:53:55.724Z,35.21
2023-03-02T15:56:22.886Z,35.38
2023-03-02T15:58:49.367Z,35.63
2023-03-02T16:01:15.779Z,36.30
2023-03-02T16:03:42.227Z,35.86
2023-03-02T16:06:08.608Z,35.56
2023-03-02T16:08:35.001Z,36.22
2023-03-02T16:11:01.458Z,36.43
2023-03-02T16:13:27.968Z,36.46
2023-03-02T16:15:54.393Z,37.27
2023-03-02T16:18:20.769Z,38.57
2023-03-02T16:20:47.174Z,38.21
2023-03-02T16:23:13.619Z,39.37
2023-03-02T16:25:40.051Z,39.50
2023-03-02T16:28:06.441Z,39.35
2023-03-02T16:30:32.843Z,39.85
2023-03-02T16:32:59.226Z,40.51
2023-03-02T16:35:25.613Z,39.66
2023-03-02T16:37:52.100Z,38.76
2023-03-02T16:40:18.484Z,39.42
2023-03-02T16:42:44.891Z,39.15
2023-03-02T16:45:11.297Z,39.08
2023-03-02T16:47:37.660Z,39.55
2023-03-02T16:50:04.086Z,39.89
2023-03-02T16:52:30.452Z,39.57
2023-03-02T16:54:56.862Z,41.46
2023-03-02T16:57:23.266Z,42.75
2023-03-02T16:59:49.645Z,43.79
2023-03-02T17:02:16.071Z,43.82
2023-03-02T17:04:42.466Z,44.91
2023-03-02T17:07:08.922Z,45.71
2023-03-02T17:09:35.316Z,45.77
2023-03-02T17:12:01.716Z,46.04
2023-03-02T17:14:28.099Z,46.21
2023-03-02T17:16:54.518Z,46.12
2023-03-02T17:19:20.874Z,45.91
2023-03-02T17:21:47.274Z,46.71
2023-03-02T17:24:13.684Z,47.06
2023-03-02T17:26:40.066Z,47.67
2023-03-02T17:29:06.480Z,47.93
2023-03-02T17:31:32.920Z,47.59
2023-03-02T17:33:59.385Z,47.90
2023-03-02T17:36:25.861Z,48.73
2023-03-02T17:38:52.220Z,48.81
2023-03-02T17:41:18.590Z,49.06
2023-03-02T17:43:45.038Z,49.48
2023-03-02T17:46:11.438Z,49.44
2023-03-02T17:48:37.960Z,49.12
2023-03-02T17:51:04.372Z,49.86
2023-03-02T17:53:30.756Z,49.83
2023-03-02T17:55:57.146Z,50.15
2023-03-02T17:58:25.264Z,49.85
2023-03-02T18:00:54.096Z,49.82
2023-03-02T18:03:20.602Z,50.41
2023-03-02T18:05:47.046Z,50.87
2023-03-02T18:08:13.411Z,50.64
2023-03-02T18:10:39.766Z,50.13
2023-03-02T18:13:06.172Z,50.31
2023-03-02T18:15:32.553Z,50.37
2023-03-02T18:17:58.935Z,50.89
2023-03-02T18:20:25.322Z,51.29
2023-03-02T18:22:51.759Z,51.53
2023-03-02T18:25:18.157Z,51.31
2023-03-02T18:27:44.558Z,51.36
2023-03-02T18:30:11.052Z,51.38
2023-03-02T18:32:37.509Z,51.43
2023-03-02T18:35:03.894Z,51.23
2023-03-02T18:37:30.347Z,51.25
2023-03-02T18:39:56.764Z,51.49
2023-03-02T18:42:23.168Z,51.39
2023-03-02T18:44:49.641Z,51.78
2023-03-02T18:47:16.040Z,51.60
2023-03-02T18:49:42.401Z,53.87
2023-03-02T18:52:08.768Z,50.97
2023-03-02T18:54:35.155Z,50.93
2023-03-02T18:57:01.569Z,51.28
2023-03-02T18:59:27.995Z,51.63
2023-03-02T19:01:54.410Z,51.07
2023-03-02T19:04:20.851Z,51.22
2023-03-02T19:06:47.215Z,51.61
2023-03-02T19:09:13.596Z,51.91
2023-03-02T19:11:39.963Z,52.40
2023-03-02T19:14:06.342Z,52.66
2023-03-02T19:16:32.747Z,52.16
2023-03-02T19:18:59.184Z,52.54
2023-03-02T19:21:25.621Z,52.72
2023-03-02T19:23:52.042Z,52.80
2023-03-02T19:26:18.405Z,53.08
2023-03-02T19:28:44.819Z,53.26
2023-03-02T19:31:11.332Z,53.80
2023-03-02T19:33:37.881Z,54.13
2023-03-02T19:36:04.282Z,54.32
2023-03-02T19:38:30.694Z,54.48
2023-03-02T19:40:57.072Z,54.37
2023-03-02T19:43:23.453Z,54.35
2023-03-02T19:45:49.901Z,55.02
2023-03-02T19:48:16.318Z,54.83
2023-03-02T19:50:42.711Z,54.87
2023-03-02T19:53:09.071Z,54.70
2023-03-02T19:55:35.460Z,55.16
2023-03-02T19:58:01.863Z,55.14
2023-03-02T20:00:28.242Z,55.14
2023-03-02T20:02:54.862Z,55.10
2023-03-02T20:05:21.311Z,55.08
2023-03-02T20:07:47.702Z,54.61
2023-03-02T20:10:14.105Z,55.13
2023-03-02T20:12:40.495Z,54.99
2023-03-02T20:15:06.905Z,54.40
2023-03-02T20:17:33.289Z,54.49
2023-03-02T20:19:59.688Z,54.89
2023-03-02T20:22:26.269Z,54.19
2023-03-02T20:24:52.730Z,54.46
2023-03-02T20:27:19.166Z,54.91
2023-03-02T20:29:45.709Z,54.87
2023-03-02T20:32:12.214Z,55.01
2023-03-02T20:34:38.722Z,54.92
2023-03-02T20:37:05.127Z,54.84
2023-03-02T20:39:31.580Z,54.64
2023-03-02T20:41:57.963Z,54.68
2023-03-02T20:44:24.385Z,54.83
2023-03-02T20:46:50.789Z,54.69
2023-03-02T20:49:17.207Z,54.76
2023-03-02T20:51:43.610Z,54.52
2023-03-02T20:54:10.081Z,54.44
2023-03-02T20:56:36.482Z,54.44
2023-03-02T20:59:02.856Z,54.36
2023-03-02T21:01:29.359Z,54.27
2023-03-02T21:03:55.773Z,54.87
2023-03-02T21:06:22.134Z,54.92
2023-03-02T21:08:48.584Z,54.80
2023-03-02T21:11:15.068Z,54.66
2023-03-02T21:13:41.612Z,54.69
2023-03-02T21:16:08.054Z,54.79
2023-03-02T21:18:34.483Z,54.65
2023-03-02T21:21:00.899Z,55.00
2023-03-02T21:23:27.275Z,55.11
2023-03-02T21:25:53.685Z,54.95
2023-03-02T21:28:20.058Z,54.84
2023-03-02T21:30:46.633Z,54.99
2023-03-02T21:33:13.034Z,54.82
2023-03-02T21:35:39.454Z,54.37
2023-03-02T21:38:05.916Z,54.74
2023-03-02T21:40:32.380Z,54.66
2023-03-02T21:42:58.783Z,54.98
2023-03-02T21:45:25.181Z,54.80
2023-03-02T21:47:51.577Z,55.19
2023-03-02T21:50:17.979Z,54.94
2023-03-02T21:52:44.367Z,54.97
2023-03-02T21:55:10.814Z,55.14
2023-03-02T21:57:37.334Z,55.12
2023-03-02T22:00:03.713Z,54.59
2023-03-02T22:02:30.122Z,54.64
2023-03-02T22:04:56.504Z,54.55
2023-03-02T22:07:22.877Z,54.59
2023-03-02T22:09:49.285Z,54.28
2023-03-02T22:12:15.670Z,54.87
2023-03-02T22:14:42.027Z,54.64
2023-03-02T22:17:08.479Z,54.63
2023-03-02T22:19:34.849Z,55.04
2023-03-02T22:22:01.270Z,55.04
2023-03-02T22:24:27.773Z,55.00
2023-03-02T22:26:54.181Z,55.19
2023-03-02T22:29:23.392Z,55.66
2023-03-02T22:31:49.834Z,55.39
2023-03-02T22:34:17.619Z,55.17
2023-03-02T22:36:45.108Z,55.90
2023-03-02T22:39:11.537Z,56.27
2023-03-02T22:41:37.902Z,56.33
2023-03-02T22:44:04.299Z,56.08
2023-03-02T22:46:30.690Z,56.49
2023-03-02T22:48:57.069Z,56.66
2023-03-02T22:51:23.461Z,56.49
2023-03-02T22:53:49.843Z,57.01
2023-03-02T22:56:16.223Z,57.05
2023-03-02T22:58:42.685Z,57.19
2023-03-02T23:01:09.217Z,57.43
2023-03-02T23:03:35.677Z,57.16
2023-03-02T23:06:02.074Z,57.24
2023-03-02T23:08:28.454Z,57.36
2023-03-02T23:10:54.854Z,57.59
2023-03-02T23:13:21.265Z,57.73
2023-03-02T23:15:47.686Z,57.77
2023-03-02T23:18:14.140Z,58.14
2023-03-02T23:20:40.503Z,57.91
2023-03-02T23:23:06.914Z,58.34
2023-03-02T23:25:33.269Z,58.23
2023-03-02T23:27:59.638Z,57.94
2023-03-02T23:30:26.017Z,58.10
2023-03-02T23:32:52.429Z,58.19
2023-03-02T23:35:18.923Z,59.12
2023-03-02T23:37:45.361Z,59.10
2023-03-02T23:40:11.756Z,59.13
2023-03-02T23:42:38.115Z,59.41
2023-03-02T23:45:04.511Z,59.97
2023-03-02T23:47:31.683Z,59.99
2023-03-02T23:49:58.081Z,59.44
2023-03-02T23:52:24.459Z,60.67
2023-03-02T23:54:50.845Z,60.73
2023-03-02T23:57:17.217Z,61.00
2023-03-02T23:59:43.603Z,61.08
